sensor_id;sensor_type;location;lat;lon;timestamp;P1;durP1;ratioP1;P2;durP2;ratioP2
60416;SDS011;46263;44.726;10.396;2022-12-20T00:01:17;90.18;;;31.17;;
60416;SDS011;46263;44.726;10.396;2022-12-20T00:03:44;86.95;;;31.75;;
60416;SDS011;46263;44.726;10.396;2022-12-20T00:06:10;83.95;;;32.20;;
60416;SDS011;46263;44.726;10.396;2022-12-20T00:08:37;85.05;;;31.38;;
60416;SDS011;46263;44.726;10.396;2022-12-20T00:11:04;79.72;;;31.13;;
60416;SDS011;46263;44.726;10.396;2022-12-20T00:13:31;85.63;;;33.25;;
60416;SDS011;46263;44.726;10.396;2022-12-20T00:16:10;96.30;;;35.03;;
60416;SDS011;46263;44.726;10.396;2022-12-20T00:18:38;81.93;;;32.25;;
60416;SDS011;46263;44.726;10.396;2022-12-20T00:21:05;82.22;;;34.13;;
60416;SDS011;46263;44.726;10.396;2022-12-20T00:23:32;85.85;;;33.65;;
60416;SDS011;46263;44.726;10.396;2022-12-20T00:25:59;76.60;;;32.22;;
60416;SDS011;46263;44.726;10.396;2022-12-20T00:28:30;85.65;;;34.72;;
60416;SDS011;46263;44.726;10.396;2022-12-20T00:30:56;85.25;;;35.85;;
60416;SDS011;46263;44.726;10.396;2022-12-20T00:33:21;86.35;;;33.40;;
60416;SDS011;46263;44.726;10.396;2022-12-20T00:35:47;92.57;;;34.67;;
60416;SDS011;46263;44.726;10.396;2022-12-20T00:38:12;87.63;;;35.45;;
60416;SDS011;46263;44.726;10.396;2022-12-20T00:40:38;90.78;;;35.80;;
60416;SDS011;46263;44.726;10.396;2022-12-20T00:43:04;91.47;;;37.58;;
60416;SDS011;46263;44.726;10.396;2022-12-20T00:45:30;81.30;;;34.28;;
60416;SDS011;46263;44.726;10.396;2022-12-20T00:47:55;88.07;;;33.58;;
60416;SDS011;46263;44.726;10.396;2022-12-20T00:50:21;87.85;;;37.08;;
60416;SDS011;46263;44.726;10.396;2022-12-20T00:52:46;79.28;;;35.70;;
60416;SDS011;46263;44.726;10.396;2022-12-20T00:55:12;82.10;;;36.90;;
60416;SDS011;46263;44.726;10.396;2022-12-20T00:57:37;84.65;;;34.38;;
60416;SDS011;46263;44.726;10.396;2022-12-20T01:00:03;81.97;;;34.78;;
60416;SDS011;46263;44.726;10.396;2022-12-20T01:02:29;80.57;;;34.40;;
60416;SDS011;46263;44.726;10.396;2022-12-20T01:04:54;89.22;;;37.55;;
60416;SDS011;46263;44.726;10.396;2022-12-20T01:07:19;82.28;;;35.88;;
60416;SDS011;46263;44.726;10.396;2022-12-20T01:09:47;77.97;;;36.33;;
60416;SDS011;46263;44.726;10.396;2022-12-20T01:12:13;81.57;;;36.00;;
60416;SDS011;46263;44.726;10.396;2022-12-20T01:14:39;84.82;;;35.20;;
60416;SDS011;46263;44.726;10.396;2022-12-20T01:17:04;77.25;;;33.25;;
60416;SDS011;46263;44.726;10.396;2022-12-20T01:19:30;79.15;;;36.03;;
60416;SDS011;46263;44.726;10.396;2022-12-20T01:21:55;79.07;;;35.70;;
60416;SDS011;46263;44.726;10.396;2022-12-20T01:24:20;76.63;;;35.58;;
60416;SDS011;46263;44.726;10.396;2022-12-20T01:26:46;75.00;;;35.50;;
60416;SDS011;46263;44.726;10.396;2022-12-20T01:29:12;79.03;;;35.17;;
60416;SDS011;46263;44.726;10.396;2022-12-20T01:31:38;77.32;;;33.92;;
60416;SDS011;46263;44.726;10.396;2022-12-20T01:34:03;78.80;;;33.40;;
60416;SDS011;46263;44.726;10.396;2022-12-20T01:36:30;77.28;;;33.85;;
60416;SDS011;46263;44.726;10.396;2022-12-20T01:38:58;75.53;;;33.70;;
60416;SDS011;46263;44.726;10.396;2022-12-20T01:41:29;80.35;;;34.35;;
60416;SDS011;46263;44.726;10.396;2022-12-20T01:43:58;75.68;;;33.58;;
60416;SDS011;46263;44.726;10.396;2022-12-20T01:46:26;76.13;;;34.05;;
60416;SDS011;46263;44.726;10.396;2022-12-20T01:48:55;81.53;;;35.00;;
60416;SDS011;46263;44.726;10.396;2022-12-20T01:51:23;84.13;;;36.58;;
60416;SDS011;46263;44.726;10.396;2022-12-20T01:53:51;81.38;;;34.72;;
60416;SDS011;46263;44.726;10.396;2022-12-20T01:56:28;72.63;;;34.22;;
60416;SDS011;46263;44.726;10.396;2022-12-20T01:58:53;75.82;;;32.78;;
60416;SDS011;46263;44.726;10.396;2022-12-20T02:01:21;78.47;;;33.80;;
60416;SDS011;46263;44.726;10.396;2022-12-20T02:03:47;84.72;;;36.33;;
60416;SDS011;46263;44.726;10.396;2022-12-20T02:06:16;71.97;;;33.80;;
60416;SDS011;46263;44.726;10.396;2022-12-20T02:08:44;81.13;;;35.60;;
60416;SDS011;46263;44.726;10.396;2022-12-20T02:16:21;76.22;;;32.38;;
60416;SDS011;46263;44.726;10.396;2022-12-20T02:18:52;83.13;;;35.10;;
60416;SDS011;46263;44.726;10.396;2022-12-20T02:21:36;75.07;;;33.47;;
60416;SDS011;46263;44.726;10.396;2022-12-20T02:32:25;76.88;;;31.63;;
60416;SDS011;46263;44.726;10.396;2022-12-20T02:34:54;78.63;;;33.58;;
60416;SDS011;46263;44.726;10.396;2022-12-20T02:37:20;73.70;;;32.53;;
60416;SDS011;46263;44.726;10.396;2022-12-20T02:39:46;78.28;;;34.85;;
60416;SDS011;46263;44.726;10.396;2022-12-20T02:42:13;80.35;;;34.00;;
60416;SDS011;46263;44.726;10.396;2022-12-20T02:44:49;72.22;;;32.72;;
60416;SDS011;46263;44.726;10.396;2022-12-20T02:47:51;77.88;;;35.55;;
60416;SDS011;46263;44.726;10.396;2022-12-20T02:50:43;77.70;;;34.00;;
60416;SDS011;46263;44.726;10.396;2022-12-20T02:53:13;84.95;;;33.55;;
60416;SDS011;46263;44.726;10.396;2022-12-20T03:01:08;86.43;;;38.53;;
60416;SDS011;46263;44.726;10.396;2022-12-20T03:03:37;77.85;;;35.67;;
60416;SDS011;46263;44.726;10.396;2022-12-20T03:06:02;79.70;;;34.05;;
60416;SDS011;46263;44.726;10.396;2022-12-20T03:08:28;90.75;;;36.35;;
60416;SDS011;46263;44.726;10.396;2022-12-20T03:10:54;82.15;;;35.22;;
60416;SDS011;46263;44.726;10.396;2022-12-20T03:13:21;77.88;;;30.30;;
60416;SDS011;46263;44.726;10.396;2022-12-20T03:15:48;81.57;;;34.28;;
60416;SDS011;46263;44.726;10.396;2022-12-20T03:18:13;84.78;;;35.22;;
60416;SDS011;46263;44.726;10.396;2022-12-20T03:20:39;84.53;;;33.78;;
60416;SDS011;46263;44.726;10.396;2022-12-20T03:23:04;93.97;;;38.20;;
60416;SDS011;46263;44.726;10.396;2022-12-20T03:25:30;84.35;;;36.92;;
60416;SDS011;46263;44.726;10.396;2022-12-20T03:27:56;86.00;;;34.95;;
60416;SDS011;46263;44.726;10.396;2022-12-20T03:30:22;90.85;;;35.90;;
60416;SDS011;46263;44.726;10.396;2022-12-20T03:32:47;85.13;;;35.63;;
60416;SDS011;46263;44.726;10.396;2022-12-20T03:35:13;88.18;;;35.97;;
60416;SDS011;46263;44.726;10.396;2022-12-20T03:37:39;95.47;;;36.20;;
60416;SDS011;46263;44.726;10.396;2022-12-20T03:40:04;103.97;;;36.90;;
60416;SDS011;46263;44.726;10.396;2022-12-20T03:42:31;90.68;;;37.42;;
60416;SDS011;46263;44.726;10.396;2022-12-20T03:44:56;99.38;;;37.97;;
60416;SDS011;46263;44.726;10.396;2022-12-20T03:47:21;97.15;;;37.90;;
60416;SDS011;46263;44.726;10.396;2022-12-20T03:49:47;94.68;;;37.63;;
60416;SDS011;46263;44.726;10.396;2022-12-20T03:52:12;107.75;;;40.63;;
60416;SDS011;46263;44.726;10.396;2022-12-20T03:54:38;99.00;;;40.58;;
60416;SDS011;46263;44.726;10.396;2022-12-20T03:57:04;97.63;;;37.72;;
60416;SDS011;46263;44.726;10.396;2022-12-20T03:59:29;91.88;;;37.20;;
60416;SDS011;46263;44.726;10.396;2022-12-20T04:01:55;90.53;;;35.50;;
60416;SDS011;46263;44.726;10.396;2022-12-20T04:04:20;95.45;;;40.13;;
60416;SDS011;46263;44.726;10.396;2022-12-20T04:06:46;98.07;;;37.50;;
60416;SDS011;46263;44.726;10.396;2022-12-20T04:09:12;105.47;;;38.03;;
60416;SDS011;46263;44.726;10.396;2022-12-20T04:11:38;117.63;;;43.17;;
60416;SDS011;46263;44.726;10.396;2022-12-20T04:14:04;107.90;;;39.05;;
60416;SDS011;46263;44.726;10.396;2022-12-20T04:16:30;98.78;;;42.75;;
60416;SDS011;46263;44.726;10.396;2022-12-20T04:18:56;114.82;;;43.47;;
60416;SDS011;46263;44.726;10.396;2022-12-20T04:21:22;101.60;;;41.80;;
60416;SDS011;46263;44.726;10.396;2022-12-20T04:23:56;102.40;;;43.65;;
60416;SDS011;46263;44.726;10.396;2022-12-20T04:26:22;101.53;;;42.88;;
60416;SDS011;46263;44.726;10.396;2022-12-20T04:28:48;103.30;;;44.13;;
60416;SDS011;46263;44.726;10.396;2022-12-20T04:31:13;91.47;;;43.17;;
60416;SDS011;46263;44.726;10.396;2022-12-20T04:33:39;94.63;;;46.55;;
60416;SDS011;46263;44.726;10.396;2022-12-20T04:36:05;96.15;;;43.85;;
60416;SDS011;46263;44.726;10.396;2022-12-20T04:38:30;94.75;;;42.70;;
60416;SDS011;46263;44.726;10.396;2022-12-20T04:40:56;94.90;;;43.40;;
60416;SDS011;46263;44.726;10.396;2022-12-20T04:43:22;99.95;;;45.92;;
60416;SDS011;46263;44.726;10.396;2022-12-20T04:45:49;100.20;;;44.00;;
60416;SDS011;46263;44.726;10.396;2022-12-20T04:48:20;98.50;;;43.80;;
60416;SDS011;46263;44.726;10.396;2022-12-20T04:50:50;99.47;;;45.70;;
60416;SDS011;46263;44.726;10.396;2022-12-20T04:53:15;90.53;;;41.65;;
60416;SDS011;46263;44.726;10.396;2022-12-20T04:56:00;102.30;;;47.67;;
60416;SDS011;46263;44.726;10.396;2022-12-20T04:58:26;93.40;;;43.58;;
60416;SDS011;46263;44.726;10.396;2022-12-20T05:00:51;91.10;;;44.28;;
60416;SDS011;46263;44.726;10.396;2022-12-20T05:03:18;88.05;;;41.75;;
60416;SDS011;46263;44.726;10.396;2022-12-20T05:05:44;95.22;;;46.88;;
60416;SDS011;46263;44.726;10.396;2022-12-20T05:08:10;87.07;;;44.85;;
60416;SDS011;46263;44.726;10.396;2022-12-20T05:10:35;88.65;;;43.00;;
60416;SDS011;46263;44.726;10.396;2022-12-20T05:13:01;96.72;;;44.45;;
60416;SDS011;46263;44.726;10.396;2022-12-20T05:15:26;89.65;;;41.25;;
60416;SDS011;46263;44.726;10.396;2022-12-20T05:17:51;93.57;;;45.25;;
60416;SDS011;46263;44.726;10.396;2022-12-20T05:20:23;92.70;;;44.05;;
60416;SDS011;46263;44.726;10.396;2022-12-20T05:22:52;83.47;;;43.80;;
60416;SDS011;46263;44.726;10.396;2022-12-20T05:25:47;95.32;;;46.95;;
60416;SDS011;46263;44.726;10.396;2022-12-20T05:28:34;97.05;;;46.15;;
60416;SDS011;46263;44.726;10.396;2022-12-20T05:31:05;92.13;;;42.38;;
60416;SDS011;46263;44.726;10.396;2022-12-20T05:33:31;99.65;;;46.03;;
60416;SDS011;46263;44.726;10.396;2022-12-20T05:35:57;100.10;;;47.67;;
60416;SDS011;46263;44.726;10.396;2022-12-20T05:38:22;96.18;;;45.05;;
60416;SDS011;46263;44.726;10.396;2022-12-20T05:40:48;104.32;;;47.97;;
60416;SDS011;46263;44.726;10.396;2022-12-20T05:43:15;101.65;;;46.70;;
60416;SDS011;46263;44.726;10.396;2022-12-20T05:45:48;108.30;;;47.55;;
60416;SDS011;46263;44.726;10.396;2022-12-20T05:48:15;87.20;;;41.80;;
60416;SDS011;46263;44.726;10.396;2022-12-20T05:50:41;98.13;;;46.97;;
60416;SDS011;46263;44.726;10.396;2022-12-20T05:53:09;95.30;;;44.30;;
60416;SDS011;46263;44.726;10.396;2022-12-20T05:55:35;95.82;;;45.70;;
60416;SDS011;46263;44.726;10.396;2022-12-20T05:58:01;97.15;;;45.80;;
60416;SDS011;46263;44.726;10.396;2022-12-20T06:00:26;92.90;;;45.85;;
60416;SDS011;46263;44.726;10.396;2022-12-20T06:02:52;100.97;;;43.75;;
60416;SDS011;46263;44.726;10.396;2022-12-20T06:05:17;99.03;;;45.03;;
60416;SDS011;46263;44.726;10.396;2022-12-20T06:07:42;91.50;;;42.50;;
60416;SDS011;46263;44.726;10.396;2022-12-20T06:10:08;93.95;;;41.60;;
60416;SDS011;46263;44.726;10.396;2022-12-20T06:12:34;88.93;;;41.50;;
60416;SDS011;46263;44.726;10.396;2022-12-20T06:14:59;99.47;;;43.15;;
60416;SDS011;46263;44.726;10.396;2022-12-20T06:17:25;85.35;;;43.20;;
60416;SDS011;46263;44.726;10.396;2022-12-20T06:19:51;93.18;;;44.88;;
60416;SDS011;46263;44.726;10.396;2022-12-20T06:22:16;93.88;;;44.47;;
60416;SDS011;46263;44.726;10.396;2022-12-20T06:24:42;98.55;;;43.15;;
60416;SDS011;46263;44.726;10.396;2022-12-20T06:27:08;98.72;;;44.47;;
60416;SDS011;46263;44.726;10.396;2022-12-20T06:29:33;99.85;;;44.95;;
60416;SDS011;46263;44.726;10.396;2022-12-20T06:32:00;92.47;;;45.15;;
60416;SDS011;46263;44.726;10.396;2022-12-20T06:34:26;89.75;;;43.25;;
60416;SDS011;46263;44.726;10.396;2022-12-20T06:36:51;101.35;;;46.00;;
60416;SDS011;46263;44.726;10.396;2022-12-20T06:39:17;105.53;;;46.75;;
60416;SDS011;46263;44.726;10.396;2022-12-20T06:41:42;99.60;;;44.60;;
60416;SDS011;46263;44.726;10.396;2022-12-20T06:44:07;100.90;;;45.28;;
60416;SDS011;46263;44.726;10.396;2022-12-20T06:46:33;104.95;;;47.33;;
60416;SDS011;46263;44.726;10.396;2022-12-20T06:48:59;93.75;;;43.85;;
60416;SDS011;46263;44.726;10.396;2022-12-20T06:51:24;94.65;;;44.05;;
60416;SDS011;46263;44.726;10.396;2022-12-20T06:53:50;93.10;;;45.05;;
60416;SDS011;46263;44.726;10.396;2022-12-20T06:56:16;106.00;;;47.25;;
60416;SDS011;46263;44.726;10.396;2022-12-20T06:58:41;94.22;;;43.33;;
60416;SDS011;46263;44.726;10.396;2022-12-20T07:01:06;100.13;;;45.42;;
60416;SDS011;46263;44.726;10.396;2022-12-20T07:03:32;100.97;;;47.28;;
60416;SDS011;46263;44.726;10.396;2022-12-20T07:05:58;96.00;;;44.88;;
60416;SDS011;46263;44.726;10.396;2022-12-20T07:08:23;98.50;;;44.83;;
60416;SDS011;46263;44.726;10.396;2022-12-20T07:10:49;99.35;;;46.13;;
60416;SDS011;46263;44.726;10.396;2022-12-20T07:13:17;97.32;;;45.20;;
60416;SDS011;46263;44.726;10.396;2022-12-20T07:15:43;95.43;;;44.13;;
60416;SDS011;46263;44.726;10.396;2022-12-20T07:18:08;102.88;;;47.35;;
60416;SDS011;46263;44.726;10.396;2022-12-20T07:20:34;101.38;;;44.15;;
60416;SDS011;46263;44.726;10.396;2022-12-20T07:23:00;99.63;;;48.83;;
60416;SDS011;46263;44.726;10.396;2022-12-20T07:25:25;105.88;;;47.53;;
60416;SDS011;46263;44.726;10.396;2022-12-20T07:27:50;105.05;;;47.38;;
60416;SDS011;46263;44.726;10.396;2022-12-20T07:30:16;97.47;;;47.50;;
60416;SDS011;46263;44.726;10.396;2022-12-20T07:32:43;94.93;;;44.28;;
60416;SDS011;46263;44.726;10.396;2022-12-20T07:35:10;96.57;;;47.10;;
60416;SDS011;46263;44.726;10.396;2022-12-20T07:37:36;98.25;;;45.00;;
60416;SDS011;46263;44.726;10.396;2022-12-20T07:40:02;91.65;;;46.53;;
60416;SDS011;46263;44.726;10.396;2022-12-20T07:42:28;101.45;;;44.33;;
60416;SDS011;46263;44.726;10.396;2022-12-20T07:44:54;94.97;;;46.75;;
60416;SDS011;46263;44.726;10.396;2022-12-20T07:47:19;89.40;;;44.45;;
60416;SDS011;46263;44.726;10.396;2022-12-20T07:49:45;88.57;;;43.67;;
60416;SDS011;46263;44.726;10.396;2022-12-20T07:52:10;97.13;;;46.08;;
60416;SDS011;46263;44.726;10.396;2022-12-20T07:54:43;99.68;;;45.88;;
60416;SDS011;46263;44.726;10.396;2022-12-20T07:57:19;97.32;;;45.25;;
60416;SDS011;46263;44.726;10.396;2022-12-20T07:59:49;99.07;;;46.22;;
60416;SDS011;46263;44.726;10.396;2022-12-20T08:02:26;93.45;;;45.38;;
60416;SDS011;46263;44.726;10.396;2022-12-20T08:04:57;93.53;;;46.20;;
60416;SDS011;46263;44.726;10.396;2022-12-20T08:07:23;95.50;;;48.78;;
60416;SDS011;46263;44.726;10.396;2022-12-20T08:09:49;96.75;;;45.28;;
60416;SDS011;46263;44.726;10.396;2022-12-20T08:12:15;90.28;;;42.55;;
60416;SDS011;46263;44.726;10.396;2022-12-20T08:14:43;93.75;;;47.00;;
60416;SDS011;46263;44.726;10.396;2022-12-20T08:17:09;90.20;;;46.65;;
60416;SDS011;46263;44.726;10.396;2022-12-20T08:19:35;96.38;;;46.42;;
60416;SDS011;46263;44.726;10.396;2022-12-20T08:22:01;92.63;;;48.08;;
60416;SDS011;46263;44.726;10.396;2022-12-20T08:24:27;90.75;;;45.03;;
60416;SDS011;46263;44.726;10.396;2022-12-20T08:26:53;92.35;;;46.58;;
60416;SDS011;46263;44.726;10.396;2022-12-20T08:29:18;94.60;;;46.70;;
60416;SDS011;46263;44.726;10.396;2022-12-20T08:31:45;89.65;;;44.95;;
60416;SDS011;46263;44.726;10.396;2022-12-20T08:34:10;93.38;;;45.22;;
60416;SDS011;46263;44.726;10.396;2022-12-20T08:36:36;88.30;;;45.60;;
60416;SDS011;46263;44.726;10.396;2022-12-20T08:39:04;93.65;;;46.22;;
60416;SDS011;46263;44.726;10.396;2022-12-20T08:41:30;94.20;;;48.55;;
60416;SDS011;46263;44.726;10.396;2022-12-20T08:43:57;91.65;;;47.17;;
60416;SDS011;46263;44.726;10.396;2022-12-20T08:46:23;92.10;;;43.95;;
60416;SDS011;46263;44.726;10.396;2022-12-20T08:48:48;88.28;;;43.70;;
60416;SDS011;46263;44.726;10.396;2022-12-20T08:51:14;89.63;;;46.30;;
60416;SDS011;46263;44.726;10.396;2022-12-20T08:53:39;87.38;;;45.20;;
60416;SDS011;46263;44.726;10.396;2022-12-20T08:56:06;88.78;;;42.60;;
60416;SDS011;46263;44.726;10.396;2022-12-20T08:58:36;88.25;;;45.78;;
60416;SDS011;46263;44.726;10.396;2022-12-20T09:01:03;86.32;;;46.00;;
60416;SDS011;46263;44.726;10.396;2022-12-20T09:03:31;95.03;;;46.55;;
60416;SDS011;46263;44.726;10.396;2022-12-20T09:05:57;100.88;;;47.95;;
60416;SDS011;46263;44.726;10.396;2022-12-20T09:08:23;88.10;;;45.78;;
60416;SDS011;46263;44.726;10.396;2022-12-20T09:10:49;93.13;;;46.45;;
60416;SDS011;46263;44.726;10.396;2022-12-20T09:13:15;95.53;;;47.92;;
60416;SDS011;46263;44.726;10.396;2022-12-20T09:15:40;83.40;;;44.67;;
60416;SDS011;46263;44.726;10.396;2022-12-20T09:18:07;91.65;;;43.58;;
60416;SDS011;46263;44.726;10.396;2022-12-20T09:20:32;90.55;;;44.22;;
60416;SDS011;46263;44.726;10.396;2022-12-20T09:22:58;92.57;;;45.47;;
60416;SDS011;46263;44.726;10.396;2022-12-20T09:25:24;84.40;;;43.95;;
60416;SDS011;46263;44.726;10.396;2022-12-20T09:27:50;83.35;;;42.78;;
60416;SDS011;46263;44.726;10.396;2022-12-20T09:30:16;90.70;;;43.05;;
60416;SDS011;46263;44.726;10.396;2022-12-20T09:32:42;87.57;;;44.85;;
60416;SDS011;46263;44.726;10.396;2022-12-20T09:35:07;94.40;;;45.15;;
60416;SDS011;46263;44.726;10.396;2022-12-20T09:37:33;92.47;;;44.95;;
60416;SDS011;46263;44.726;10.396;2022-12-20T09:40:00;92.43;;;47.10;;
60416;SDS011;46263;44.726;10.396;2022-12-20T09:42:27;97.95;;;46.30;;
60416;SDS011;46263;44.726;10.396;2022-12-20T09:44:58;91.22;;;43.75;;
60416;SDS011;46263;44.726;10.396;2022-12-20T09:47:33;93.38;;;44.90;;
60416;SDS011;46263;44.726;10.396;2022-12-20T09:50:03;91.20;;;45.17;;
60416;SDS011;46263;44.726;10.396;2022-12-20T09:58:22;87.75;;;44.92;;
60416;SDS011;46263;44.726;10.396;2022-12-20T10:00:57;88.47;;;41.70;;
60416;SDS011;46263;44.726;10.396;2022-12-20T10:03:35;84.82;;;43.55;;
60416;SDS011;46263;44.726;10.396;2022-12-20T10:09:09;97.82;;;45.55;;
60416;SDS011;46263;44.726;10.396;2022-12-20T10:12:00;88.90;;;44.28;;
60416;SDS011;46263;44.726;10.396;2022-12-20T10:14:40;85.47;;;44.17;;
60416;SDS011;46263;44.726;10.396;2022-12-20T10:25:32;89.30;;;44.38;;
60416;SDS011;46263;44.726;10.396;2022-12-20T10:28:00;92.57;;;43.05;;
60416;SDS011;46263;44.726;10.396;2022-12-20T10:30:30;83.18;;;44.28;;
60416;SDS011;46263;44.726;10.396;2022-12-20T10:33:00;83.50;;;42.72;;
60416;SDS011;46263;44.726;10.396;2022-12-20T10:35:28;85.00;;;43.55;;
60416;SDS011;46263;44.726;10.396;2022-12-20T10:37:58;83.88;;;42.55;;
60416;SDS011;46263;44.726;10.396;2022-12-20T10:43:05;75.57;;;42.08;;
60416;SDS011;46263;44.726;10.396;2022-12-20T10:45:39;76.28;;;42.50;;
60416;SDS011;46263;44.726;10.396;2022-12-20T10:48:23;83.18;;;42.33;;
60416;SDS011;46263;44.726;10.396;2022-12-20T10:53:35;78.07;;;43.05;;
60416;SDS011;46263;44.726;10.396;2022-12-20T10:56:33;82.07;;;44.03;;
60416;SDS011;46263;44.726;10.396;2022-12-20T11:01:43;83.70;;;42.42;;
60416;SDS011;46263;44.726;10.396;2022-12-20T11:06:55;80.95;;;42.25;;
60416;SDS011;46263;44.726;10.396;2022-12-20T11:09:30;76.18;;;39.38;;
60416;SDS011;46263;44.726;10.396;2022-12-20T11:14:27;78.07;;;42.53;;
60416;SDS011;46263;44.726;10.396;2022-12-20T11:16:56;79.10;;;41.65;;
60416;SDS011;46263;44.726;10.396;2022-12-20T11:19:40;80.20;;;41.28;;
60416;SDS011;46263;44.726;10.396;2022-12-20T11:22:42;76.47;;;40.00;;
60416;SDS011;46263;44.726;10.396;2022-12-20T11:28:09;78.60;;;41.97;;
60416;SDS011;46263;44.726;10.396;2022-12-20T11:31:11;77.03;;;41.65;;
60416;SDS011;46263;44.726;10.396;2022-12-20T11:39:01;77.55;;;38.63;;
60416;SDS011;46263;44.726;10.396;2022-12-20T11:47:26;71.57;;;39.95;;
60416;SDS011;46263;44.726;10.396;2022-12-20T11:53:55;72.25;;;38.10;;
60416;SDS011;46263;44.726;10.396;2022-12-20T11:56:16;71.57;;;39.47;;
60416;SDS011;46263;44.726;10.396;2022-12-20T11:58:56;74.65;;;40.05;;
60416;SDS011;46263;44.726;10.396;2022-12-20T12:01:51;79.43;;;42.22;;
60416;SDS011;46263;44.726;10.396;2022-12-20T12:04:56;78.88;;;41.80;;
60416;SDS011;46263;44.726;10.396;2022-12-20T12:12:59;80.05;;;42.47;;
60416;SDS011;46263;44.726;10.396;2022-12-20T12:15:38;74.55;;;38.20;;
60416;SDS011;46263;44.726;10.396;2022-12-20T12:18:15;72.63;;;38.80;;
60416;SDS011;46263;44.726;10.396;2022-12-20T12:20:50;75.70;;;38.05;;
60416;SDS011;46263;44.726;10.396;2022-12-20T12:23:32;68.60;;;38.22;;
60416;SDS011;46263;44.726;10.396;2022-12-20T12:26:23;64.60;;;38.65;;
60416;SDS011;46263;44.726;10.396;2022-12-20T12:28:59;68.38;;;38.75;;
60416;SDS011;46263;44.726;10.396;2022-12-20T12:34:19;63.60;;;34.17;;
60416;SDS011;46263;44.726;10.396;2022-12-20T12:43:12;64.55;;;36.55;;
60416;SDS011;46263;44.726;10.396;2022-12-20T12:45:55;64.50;;;36.90;;
60416;SDS011;46263;44.726;10.396;2022-12-20T12:50:59;66.32;;;36.30;;
60416;SDS011;46263;44.726;10.396;2022-12-20T13:04:30;65.20;;;37.95;;
60416;SDS011;46263;44.726;10.396;2022-12-20T13:13:00;67.18;;;41.42;;
60416;SDS011;46263;44.726;10.396;2022-12-20T13:20:36;62.03;;;35.28;;
60416;SDS011;46263;44.726;10.396;2022-12-20T13:25:41;64.00;;;35.08;;
60416;SDS011;46263;44.726;10.396;2022-12-20T13:33:39;58.65;;;33.78;;
60416;SDS011;46263;44.726;10.396;2022-12-20T13:38:38;57.42;;;35.30;;
60416;SDS011;46263;44.726;10.396;2022-12-20T13:41:18;61.55;;;36.80;;
60416;SDS011;46263;44.726;10.396;2022-12-20T13:44:18;63.92;;;35.85;;
60416;SDS011;46263;44.726;10.396;2022-12-20T13:46:59;60.72;;;36.17;;
60416;SDS011;46263;44.726;10.396;2022-12-20T13:49:37;63.80;;;33.63;;
60416;SDS011;46263;44.726;10.396;2022-12-20T13:52:27;66.95;;;36.30;;
60416;SDS011;46263;44.726;10.396;2022-12-20T13:54:59;61.97;;;37.92;;
60416;SDS011;46263;44.726;10.396;2022-12-20T13:57:39;59.03;;;32.50;;
60416;SDS011;46263;44.726;10.396;2022-12-20T14:00:17;59.60;;;33.20;;
60416;SDS011;46263;44.726;10.396;2022-12-20T14:02:52;59.78;;;33.10;;
60416;SDS011;46263;44.726;10.396;2022-12-20T14:05:20;60.08;;;33.22;;
60416;SDS011;46263;44.726;10.396;2022-12-20T14:07:55;63.05;;;33.10;;
60416;SDS011;46263;44.726;10.396;2022-12-20T14:10:26;64.07;;;33.67;;
60416;SDS011;46263;44.726;10.396;2022-12-20T14:12:57;59.85;;;34.83;;
60416;SDS011;46263;44.726;10.396;2022-12-20T14:15:26;60.72;;;34.25;;
60416;SDS011;46263;44.726;10.396;2022-12-20T14:18:19;54.53;;;30.98;;
60416;SDS011;46263;44.726;10.396;2022-12-20T14:20:58;55.42;;;32.65;;
60416;SDS011;46263;44.726;10.396;2022-12-20T14:23:43;59.20;;;33.30;;
60416;SDS011;46263;44.726;10.396;2022-12-20T14:26:22;56.88;;;30.98;;
60416;SDS011;46263;44.726;10.396;2022-12-20T14:28:50;64.55;;;30.92;;
60416;SDS011;46263;44.726;10.396;2022-12-20T14:36:30;61.72;;;35.13;;
60416;SDS011;46263;44.726;10.396;2022-12-20T14:38:58;64.90;;;34.97;;
60416;SDS011;46263;44.726;10.396;2022-12-20T14:41:29;67.00;;;36.78;;
60416;SDS011;46263;44.726;10.396;2022-12-20T14:46:33;57.20;;;31.47;;
60416;SDS011;46263;44.726;10.396;2022-12-20T14:49:10;56.72;;;32.67;;
60416;SDS011;46263;44.726;10.396;2022-12-20T14:51:47;51.70;;;31.10;;
60416;SDS011;46263;44.726;10.396;2022-12-20T14:54:16;56.47;;;31.95;;
60416;SDS011;46263;44.726;10.396;2022-12-20T14:56:48;54.55;;;31.65;;
60416;SDS011;46263;44.726;10.396;2022-12-20T14:59:23;56.78;;;32.72;;
60416;SDS011;46263;44.726;10.396;2022-12-20T15:01:54;57.05;;;32.42;;
60416;SDS011;46263;44.726;10.396;2022-12-20T15:04:43;52.25;;;30.38;;
60416;SDS011;46263;44.726;10.396;2022-12-20T15:07:29;59.05;;;32.60;;
60416;SDS011;46263;44.726;10.396;2022-12-20T15:09:56;52.70;;;30.60;;
60416;SDS011;46263;44.726;10.396;2022-12-20T15:12:24;59.75;;;32.10;;
60416;SDS011;46263;44.726;10.396;2022-12-20T15:14:50;61.15;;;32.92;;
60416;SDS011;46263;44.726;10.396;2022-12-20T15:17:17;54.40;;;30.17;;
60416;SDS011;46263;44.726;10.396;2022-12-20T15:19:46;50.80;;;31.67;;
60416;SDS011;46263;44.726;10.396;2022-12-20T15:22:17;60.08;;;33.17;;
60416;SDS011;46263;44.726;10.396;2022-12-20T15:24:45;54.53;;;33.25;;
60416;SDS011;46263;44.726;10.396;2022-12-20T15:27:12;58.25;;;31.90;;
60416;SDS011;46263;44.726;10.396;2022-12-20T15:29:39;55.75;;;33.00;;
60416;SDS011;46263;44.726;10.396;2022-12-20T15:32:13;58.70;;;32.72;;
60416;SDS011;46263;44.726;10.396;2022-12-20T15:34:54;59.05;;;32.78;;
60416;SDS011;46263;44.726;10.396;2022-12-20T15:37:21;55.38;;;31.33;;
60416;SDS011;46263;44.726;10.396;2022-12-20T15:39:48;53.28;;;30.95;;
60416;SDS011;46263;44.726;10.396;2022-12-20T15:42:15;53.65;;;30.63;;
60416;SDS011;46263;44.726;10.396;2022-12-20T15:44:45;55.17;;;31.10;;
60416;SDS011;46263;44.726;10.396;2022-12-20T15:47:14;58.88;;;32.58;;
60416;SDS011;46263;44.726;10.396;2022-12-20T15:49:42;59.72;;;32.58;;
60416;SDS011;46263;44.726;10.396;2022-12-20T15:52:10;57.47;;;33.28;;
60416;SDS011;46263;44.726;10.396;2022-12-20T15:54:44;65.75;;;33.15;;
60416;SDS011;46263;44.726;10.396;2022-12-20T15:57:12;60.20;;;35.75;;
60416;SDS011;46263;44.726;10.396;2022-12-20T15:59:40;69.68;;;37.67;;
60416;SDS011;46263;44.726;10.396;2022-12-20T16:02:21;64.38;;;34.78;;
60416;SDS011;46263;44.726;10.396;2022-12-20T16:04:49;70.00;;;36.60;;
60416;SDS011;46263;44.726;10.396;2022-12-20T16:07:17;62.63;;;35.83;;
60416;SDS011;46263;44.726;10.396;2022-12-20T16:09:44;56.45;;;31.90;;
60416;SDS011;46263;44.726;10.396;2022-12-20T16:12:15;57.92;;;33.47;;
60416;SDS011;46263;44.726;10.396;2022-12-20T16:14:53;56.72;;;32.83;;
60416;SDS011;46263;44.726;10.396;2022-12-20T16:17:20;56.22;;;29.73;;
60416;SDS011;46263;44.726;10.396;2022-12-20T16:19:47;55.30;;;30.92;;
60416;SDS011;46263;44.726;10.396;2022-12-20T16:22:18;56.85;;;31.08;;
60416;SDS011;46263;44.726;10.396;2022-12-20T16:24:50;52.78;;;31.13;;
60416;SDS011;46263;44.726;10.396;2022-12-20T16:27:17;62.83;;;33.60;;